Reno, Nevada
Current Conditions -  °F | °C
As of 4:55 PM on Tuesday 27 Jan 2015 (Local Time) from KRNO Reporting Station
Overcast Overcast  
Wind Chill: 50°   Ceiling: 11000
Heat Index: 50°   Visibility: 10mi
Dew Point: 27°   Wind: 12mph
Humidity: 41%   Direction: 330°NNW
Pressure: 30.21"   Gusts: NA
Location:  39.52°N, 119.81°W
Report Text: KRNO 280055Z 33010KT 10SM FEW055 BKN110 OVC200 10/M03 A3021 RMK AO2 SLP219 T01001028
Loading
Personal Weather Stations






























Interactive Weather Map New forecast layout! Learn more

10-Day Weather Forecast

Advertisements
Track Severe Weather on mobile